Time;durP1;ratioP1;P1;durP2;ratioP2;P2;SDS_P1;SDS_P2;PMS_P1;PMS_P2;Temp;Humidity;BMP_temperature;BMP_pressure;BME280_temperature;BME280_humidity;BME280_pressure;Samples;Min_cycle;Max_cycle;Signal;HPM_P1;HPM_P2
2022/06/07 00:02:30;;;;;;;3.92;2.70;;;;;;;15.87;100.00;95954.63;5100284;28;20028;-62
2022/06/07 00:04:56;;;;;;;2.50;2.30;;;;;;;15.96;100.00;95954.66;5102146;28;20552;-61
2022/06/07 00:07:24;;;;;;;2.90;2.20;;;;;;;15.94;100.00;95957.47;5107074;28;20023;-61
2022/06/07 00:09:49;;;;;;;2.60;2.40;;;;;;;15.92;100.00;95954.16;5098447;28;20111;-62
2022/06/07 00:12:17;;;;;;;6.35;2.60;;;;;;;15.95;100.00;95951.16;5104278;28;20016;-62
2022/06/07 00:14:43;;;;;;;2.75;2.40;;;;;;;15.91;100.00;95949.84;5100759;28;20024;-62
2022/06/07 00:17:09;;;;;;;12.70;2.40;;;;;;;15.93;100.00;95942.53;5101758;28;20419;-62
2022/06/07 00:19:35;;;;;;;5.03;2.55;;;;;;;15.89;100.00;95939.38;5101589;28;20032;-61
2022/06/07 00:22:01;;;;;;;3.08;2.42;;;;;;;15.72;100.00;95933.25;5099853;28;20024;-61
2022/06/07 00:24:27;;;;;;;5.88;2.40;;;;;;;15.71;100.00;95936.91;5103786;28;20557;-62
2022/06/07 00:26:53;;;;;;;4.20;2.60;;;;;;;15.73;100.00;95948.19;5098960;28;20026;-61
2022/06/07 00:29:21;;;;;;;4.53;3.03;;;;;;;15.72;100.00;95937.75;5100003;28;20028;-61
2022/06/07 00:31:46;;;;;;;7.15;2.95;;;;;;;15.70;100.00;95940.56;5098454;28;20024;-62
2022/06/07 00:34:12;;;;;;;2.65;2.45;;;;;;;15.60;100.00;95946.03;5097913;28;20368;-62
2022/06/07 00:36:38;;;;;;;3.17;2.88;;;;;;;15.60;100.00;95947.88;5101496;28;20015;-61
2022/06/07 00:39:04;;;;;;;6.07;3.95;;;;;;;15.67;100.00;95943.56;5106062;28;20371;-62
2022/06/07 00:41:30;;;;;;;5.10;4.63;;;;;;;15.68;100.00;95941.72;5105219;28;20019;-62
2022/06/07 00:44:24;;;;;;;5.22;3.15;;;;;;;15.78;100.00;95947.69;5096869;28;20023;-62
2022/06/07 00:46:53;;;;;;;2.85;2.65;;;;;;;15.70;100.00;95948.53;5096310;28;20035;-62
2022/06/07 00:49:20;;;;;;;4.47;3.47;;;;;;;15.68;100.00;95942.56;5100007;28;20386;-62
2022/06/07 00:51:46;;;;;;;4.35;3.92;;;;;;;15.59;100.00;95931.13;5105590;28;20019;-61
2022/06/07 00:54:21;;;;;;;4.22;3.67;;;;;;;15.54;100.00;95929.97;5096939;28;20023;-62
2022/06/07 00:56:47;;;;;;;4.07;3.22;;;;;;;15.60;100.00;95921.34;5099157;28;20035;-62
2022/06/07 00:59:13;;;;;;;3.25;2.92;;;;;;;15.59;100.00;95925.81;5095150;28;20089;-61
2022/06/07 01:01:38;;;;;;;4.10;2.30;;;;;;;15.61;100.00;95915.84;5099971;28;20454;-62
2022/06/07 01:04:04;;;;;;;2.20;2.00;;;;;;;15.57;100.00;95911.03;5097068;28;20016;-62
2022/06/07 01:11:57;;;;;;;4.07;3.25;;;;;;;15.71;100.00;95926.28;5103983;28;20104;-62
2022/06/07 01:14:22;;;;;;;3.72;3.42;;;;;;;15.70;100.00;95924.63;5099643;28;20486;-62
2022/06/07 01:16:48;;;;;;;3.10;2.90;;;;;;;15.71;100.00;95920.97;5104896;28;20169;-62
2022/06/07 01:19:13;;;;;;;3.63;3.33;;;;;;;15.76;100.00;95920.50;5097030;28;20060;-62
2022/06/07 01:21:41;;;;;;;3.38;2.80;;;;;;;15.68;100.00;95923.97;5096190;28;20028;-62
2022/06/07 01:24:07;;;;;;;2.92;2.72;;;;;;;15.54;100.00;95916.69;5103285;28;20027;-61
2022/06/07 01:26:33;;;;;;;4.25;2.83;;;;;;;15.50;100.00;95902.09;5096314;28;20024;-62
2022/06/07 01:28:59;;;;;;;2.90;2.70;;;;;;;15.53;100.00;95907.06;5102355;28;20016;-62
2022/06/07 01:31:24;;;;;;;9.15;3.00;;;;;;;15.47;100.00;95906.75;5098060;28;20060;-62
2022/06/07 01:33:50;;;;;;;6.72;2.88;;;;;;;15.47;100.00;95897.94;5095133;28;20032;-62
2022/06/07 01:36:17;;;;;;;2.90;2.50;;;;;;;15.46;100.00;95886.53;5092920;28;20398;-62
2022/06/07 01:38:45;;;;;;;4.55;2.95;;;;;;;15.42;100.00;95890.53;5093965;28;20043;-62
2022/06/07 01:43:58;;;;;;;4.10;3.70;;;;;;;15.46;100.00;95883.88;5101456;28;20406;-62
2022/06/07 01:46:23;;;;;;;7.18;6.57;;;;;;;15.50;100.00;95881.72;5109701;28;20448;-62
2022/06/07 01:48:49;;;;;;;9.70;8.73;;;;;;;15.54;100.00;95879.53;5103308;28;20102;-62
2022/06/07 01:51:16;;;;;;;9.80;8.85;;;;;;;15.57;100.00;95887.16;5099244;28;20031;-62
2022/06/07 01:53:43;;;;;;;11.65;8.55;;;;;;;15.53;100.00;95875.25;5105106;28;20032;-62
2022/06/07 01:56:13;;;;;;;10.25;7.85;;;;;;;15.45;100.00;95882.22;5101449;28;20474;-62
2022/06/07 01:58:44;;;;;;;10.40;9.50;;;;;;;15.38;100.00;95878.59;5104165;28;20384;-62
2022/06/07 02:01:12;;;;;;;9.93;8.93;;;;;;;15.32;100.00;95874.78;5104864;28;20066;-62
2022/06/07 02:03:37;;;;;;;10.65;9.55;;;;;;;15.32;100.00;95874.78;5105773;28;20023;-62
2022/06/07 02:06:06;;;;;;;6.20;5.28;;;;;;;15.42;100.00;95874.59;5101626;28;20058;-62
2022/06/07 02:08:32;;;;;;;4.80;3.90;;;;;;;15.41;100.00;95866.81;5109130;28;20501;-60
2022/06/07 02:11:05;;;;;;;6.90;3.97;;;;;;;15.39;100.00;95869.63;5085912;28;20015;-62
2022/06/07 02:13:31;;;;;;;5.38;3.65;;;;;;;15.37;100.00;95863.69;5101226;28;20020;-62
2022/06/07 02:15:56;;;;;;;4.15;3.80;;;;;;;15.43;100.00;95870.94;5113180;28;20022;-62
2022/06/07 02:18:22;;;;;;;4.38;3.33;;;;;;;15.43;100.00;95870.94;5094183;28;20035;-62
2022/06/07 02:20:47;;;;;;;4.90;3.20;;;;;;;15.39;100.00;95860.84;5092515;28;20572;-62
2022/06/07 02:23:12;;;;;;;4.03;3.40;;;;;;;15.31;100.00;95869.63;5102486;28;20042;-62
2022/06/07 02:25:43;;;;;;;4.38;3.80;;;;;;;15.32;100.00;95868.63;5094491;28;20038;-62
2022/06/07 02:28:11;;;;;;;4.93;4.15;;;;;;;15.33;100.00;95871.13;5094946;28;20115;-62
2022/06/07 02:30:39;;;;;;;4.80;3.88;;;;;;;15.37;100.00;95876.94;5108446;28;20539;-62
2022/06/07 02:33:05;;;;;;;6.45;3.35;;;;;;;15.39;100.00;95874.94;5113028;28;20024;-62
2022/06/07 02:35:31;;;;;;;3.65;3.35;;;;;;;15.33;100.00;95875.59;5107923;28;20114;-62
2022/06/07 02:37:56;;;;;;;3.22;2.92;;;;;;;15.31;100.00;95878.44;5109523;28;20103;-62
2022/06/07 02:40:22;;;;;;;4.93;3.33;;;;;;;15.35;100.00;95878.91;5103327;28;20387;-61
2022/06/07 02:42:47;;;;;;;6.95;3.00;;;;;;;15.33;100.00;95880.91;5112569;28;20094;-62
2022/06/07 02:45:12;;;;;;;3.95;3.55;;;;;;;15.37;100.00;95876.94;5112543;28;20019;-62
2022/06/07 02:47:38;;;;;;;7.32;3.10;;;;;;;15.37;100.00;95881.41;5101111;28;20032;-62
2022/06/07 02:50:04;;;;;;;4.45;2.97;;;;;;;15.33;100.00;95880.91;5112425;28;20031;-62
2022/06/07 02:52:30;;;;;;;3.35;3.15;;;;;;;15.33;100.00;95887.03;5111813;28;20040;-62
2022/06/07 02:54:55;;;;;;;3.60;3.30;;;;;;;15.32;100.00;95882.72;5108170;28;20367;-63
2022/06/07 02:57:21;;;;;;;3.78;3.47;;;;;;;15.32;100.00;95884.53;5103317;28;20059;-62
2022/06/07 02:59:46;;;;;;;3.40;3.10;;;;;;;15.29;100.00;95885.72;5101973;28;20043;-62
2022/06/07 03:02:12;;;;;;;6.28;3.08;;;;;;;15.32;100.00;95887.19;5112219;28;20122;-63
2022/06/07 03:04:38;;;;;;;3.33;3.00;;;;;;;15.25;100.00;95891.53;5112466;28;20042;-62
2022/06/07 03:07:04;;;;;;;5.90;2.58;;;;;;;15.21;100.00;95895.50;5112127;28;20042;-62
2022/06/07 03:09:31;;;;;;;3.35;3.15;;;;;;;15.23;100.00;95896.16;5112145;28;20505;-62
2022/06/07 03:11:56;;;;;;;4.28;3.13;;;;;;;15.17;100.00;95887.03;5106892;28;20020;-62
2022/06/07 03:14:22;;;;;;;2.90;2.70;;;;;;;15.18;100.00;95891.34;5102033;28;20031;-62
2022/06/07 03:16:47;;;;;;;3.53;3.10;;;;;;;15.17;100.00;95898.50;5110967;28;20040;-62
2022/06/07 03:19:13;;;;;;;3.03;2.83;;;;;;;15.13;100.00;95886.53;5103595;28;20444;-63
2022/06/07 03:21:39;;;;;;;5.55;2.58;;;;;;;15.17;100.00;95892.34;5103752;28;20479;-62
2022/06/07 03:24:06;;;;;;;2.83;2.63;;;;;;;15.18;100.00;95884.25;5105062;28;20046;-62
2022/06/07 03:26:31;;;;;;;3.58;3.05;;;;;;;15.08;100.00;95891.50;5100060;28;20032;-63
2022/06/07 03:28:57;;;;;;;2.88;2.67;;;;;;;14.95;100.00;95888.53;5100273;28;20020;-62
2022/06/07 03:31:22;;;;;;;5.00;2.97;;;;;;;14.88;100.00;95891.81;5095177;28;20019;-62
2022/06/07 03:33:48;;;;;;;5.45;2.92;;;;;;;14.86;100.00;95896.47;5090984;28;20024;-62
2022/06/07 03:36:18;;;;;;;5.68;5.10;;;;;;;14.84;100.00;95902.94;5091440;28;20035;-62
2022/06/07 03:38:44;;;;;;;7.07;6.20;;;;;;;14.84;100.00;95903.75;5091180;28;20040;-63
2022/06/07 03:41:16;;;;;;;5.70;5.25;;;;;;;14.85;100.00;95909.91;5091838;28;20479;-62
2022/06/07 03:43:41;;;;;;;6.45;5.95;;;;;;;14.81;100.00;95919.16;5093397;28;20448;-62
2022/06/07 03:46:13;;;;;;;5.82;5.32;;;;;;;14.81;100.00;95909.38;5090981;28;20032;-62
2022/06/07 03:48:40;;;;;;;4.05;3.75;;;;;;;14.83;100.00;95915.34;5100678;28;20027;-62
2022/06/07 03:51:06;;;;;;;7.20;3.10;;;;;;;14.82;100.00;95911.03;5094562;28;20031;-62
2022/06/07 03:53:32;;;;;;;4.32;2.83;;;;;;;14.80;100.00;95918.31;5106339;28;20039;-62
2022/06/07 03:55:58;;;;;;;3.58;3.25;;;;;;;14.73;100.00;95920.78;5091956;28;20040;-62
2022/06/07 03:58:23;;;;;;;3.72;3.20;;;;;;;14.71;100.00;95914.00;5090651;28;20028;-63
2022/06/07 04:00:49;;;;;;;4.57;4.28;;;;;;;14.71;100.00;95922.78;5090452;28;20090;-62
2022/06/07 04:03:15;;;;;;;9.48;4.07;;;;;;;14.67;100.00;95913.47;5090278;28;20078;-62
2022/06/07 04:05:42;;;;;;;4.90;4.50;;;;;;;14.73;100.00;95918.16;5090349;28;20416;-61
2022/06/07 04:08:10;;;;;;;5.90;5.00;;;;;;;14.68;100.00;95922.22;5101934;28;20032;-64
2022/06/07 04:10:36;;;;;;;5.70;5.30;;;;;;;14.70;100.00;95920.25;5099285;28;20036;-63
2022/06/07 04:13:01;;;;;;;7.63;5.32;;;;;;;14.66;100.00;95922.41;5106829;28;20490;-63
2022/06/07 04:15:27;;;;;;;5.50;5.10;;;;;;;14.59;100.00;95924.88;5099042;28;20034;-62
2022/06/07 04:17:53;;;;;;;6.22;5.63;;;;;;;14.55;100.00;95923.53;5096255;28;20034;-63
2022/06/07 04:20:20;;;;;;;6.22;5.68;;;;;;;14.54;100.00;95931.63;5095161;28;20034;-63
2022/06/07 04:22:45;;;;;;;6.40;5.60;;;;;;;14.56;100.00;95930.50;5099891;28;20027;-62
2022/06/07 04:25:11;;;;;;;5.88;5.05;;;;;;;14.55;100.00;95934.13;5099214;28;20043;-62
2022/06/07 04:27:36;;;;;;;5.38;4.97;;;;;;;14.53;100.00;95925.53;5100742;28;20039;-62
2022/06/07 04:30:02;;;;;;;12.10;4.90;;;;;;;14.54;100.00;95932.47;5100549;28;20383;-62
2022/06/07 04:32:27;;;;;;;6.88;5.10;;;;;;;14.58;100.00;95930.31;5090644;28;20399;-62
2022/06/07 04:34:53;;;;;;;6.05;5.57;;;;;;;14.58;100.00;95933.81;5090065;28;20057;-62
2022/06/07 04:37:19;;;;;;;6.70;5.30;;;;;;;14.55;100.00;95928.84;5071977;28;20495;-62
2022/06/07 04:39:44;;;;;;;5.15;4.75;;;;;;;14.52;100.00;95923.88;5090304;28;20042;-62
2022/06/07 04:42:10;;;;;;;5.43;5.00;;;;;;;14.62;100.00;95923.72;5089797;28;20149;-62
2022/06/07 04:44:35;;;;;;;5.45;4.45;;;;;;;14.64;100.00;95931.50;5091190;28;20100;-61
2022/06/07 04:47:01;;;;;;;3.92;3.72;;;;;;;14.55;100.00;95926.19;5089659;28;20028;-62
2022/06/07 04:49:27;;;;;;;3.80;3.60;;;;;;;14.51;100.00;95934.63;5089243;28;20471;-62
2022/06/07 04:51:52;;;;;;;3.80;3.35;;;;;;;14.46;100.00;95932.44;5099343;28;20012;-62
2022/06/07 04:54:18;;;;;;;5.57;5.07;;;;;;;14.42;100.00;95936.41;5095839;28;20402;-62
2022/06/07 04:56:43;;;;;;;13.65;12.25;;;;;;;14.47;100.00;95936.75;5095156;28;20051;-61
2022/06/07 04:59:09;;;;;;;31.48;28.67;;;;;;;14.52;100.00;95933.63;5090879;28;20024;-62
2022/06/07 05:01:37;;;;;;;32.50;29.52;;;;;;;14.51;100.00;95940.75;5093117;28;20111;-62
2022/06/07 05:04:04;;;;;;;39.05;35.42;;;;;;;14.54;100.00;95942.22;5103456;28;20028;-62
2022/06/07 05:06:35;;;;;;;35.33;32.03;;;;;;;14.56;100.00;95935.78;5090046;28;20034;-61
2022/06/07 05:09:05;;;;;;;29.98;27.27;;;;;;;14.56;100.00;95932.31;5089532;28;20111;-62
2022/06/07 05:11:30;;;;;;;29.92;27.13;;;;;;;14.56;100.00;95934.94;5089601;28;20095;-62
2022/06/07 05:13:58;;;;;;;28.92;26.17;;;;;;;14.51;100.00;95948.69;5095408;28;20107;-62
2022/06/07 05:16:24;;;;;;;30.33;27.25;;;;;;;14.54;100.00;95952.84;5114169;28;20095;-62
2022/06/07 05:18:51;;;;;;;28.50;25.88;;;;;;;14.56;100.00;95948.19;5114416;28;20020;-62
2022/06/07 05:21:18;;;;;;;30.20;27.13;;;;;;;14.56;100.00;95948.19;5108263;28;20059;-62
2022/06/07 05:23:43;;;;;;;27.65;25.02;;;;;;;14.56;100.00;95945.56;5093649;28;20384;-62
2022/06/07 05:26:18;;;;;;;24.20;21.92;;;;;;;14.56;100.00;95949.03;5098893;28;20032;-62
2022/06/07 05:28:44;;;;;;;31.40;28.25;;;;;;;14.59;100.00;95948.72;5105613;28;20058;-61
2022/06/07 05:31:10;;;;;;;19.55;17.73;;;;;;;14.70;100.00;95944.09;5111575;28;20069;-62
2022/06/07 05:33:36;;;;;;;18.63;16.83;;;;;;;14.78;100.00;95954.75;5111193;28;20441;-63
2022/06/07 05:36:03;;;;;;;17.65;15.90;;;;;;;14.82;100.00;95942.84;5112158;28;20398;-63
2022/06/07 05:38:28;;;;;;;17.80;16.30;;;;;;;14.91;100.00;95946.34;5107593;28;20027;-62
2022/06/07 05:40:54;;;;;;;29.52;26.42;;;;;;;14.96;100.00;95940.56;5094757;28;20470;-63
2022/06/07 05:43:19;;;;;;;33.90;30.65;;;;;;;15.03;100.00;95949.50;5106685;28;20054;-63
2022/06/07 05:45:54;;;;;;;40.63;37.03;;;;;;;15.11;100.00;95949.50;5108197;28;20032;-63
2022/06/07 05:48:20;;;;;;;41.43;37.63;;;;;;;15.16;100.00;95947.22;5093106;28;20020;-63
2022/06/07 05:50:53;;;;;;;29.98;27.13;;;;;;;15.32;100.00;95942.91;5092882;28;20031;-62
2022/06/07 05:53:19;;;;;;;13.43;12.32;;;;;;;15.49;100.00;95948.22;5093041;28;20028;-62
2022/06/07 05:55:45;;;;;;;11.88;10.57;;;;;;;15.65;100.00;95958.81;5092922;28;20044;-62
2022/06/07 05:58:11;;;;;;;8.57;7.88;;;;;;;15.73;100.00;95958.81;5092850;28;20092;-63
2022/06/07 06:00:38;;;;;;;8.88;8.25;;;;;;;15.86;100.00;95957.47;5092909;28;20467;-62
2022/06/07 06:03:05;;;;;;;13.00;11.65;;;;;;;16.00;100.00;95955.97;5094219;28;20558;-62
2022/06/07 06:05:31;;;;;;;11.43;10.52;;;;;;;16.06;100.00;95954.47;5104137;28;20038;-63
2022/06/07 06:10:40;;;;;;;9.80;9.02;;;;;;;16.18;100.00;95953.94;5106659;28;20385;-62
2022/06/07 06:13:06;;;;;;;7.85;7.25;;;;;;;16.31;100.00;95957.88;5108492;28;20016;-62
2022/06/07 06:15:32;;;;;;;3.97;3.67;;;;;;;16.54;100.00;95955.31;5106373;28;20035;-63
2022/06/07 06:18:00;;;;;;;3.72;3.53;;;;;;;16.85;100.00;95966.94;5092760;28;20024;-63
2022/06/07 06:20:25;;;;;;;7.55;3.50;;;;;;;17.05;99.56;95967.34;5092421;28;20081;-62
2022/06/07 06:22:51;;;;;;;6.95;3.97;;;;;;;17.11;99.25;95963.16;5092198;28;20012;-62
2022/06/07 06:25:16;;;;;;;4.63;4.32;;;;;;;17.05;100.00;95967.34;5092201;28;20020;-62
2022/06/07 06:27:42;;;;;;;5.60;5.22;;;;;;;17.18;99.67;95958.78;5091416;28;20031;-62
2022/06/07 06:30:10;;;;;;;5.75;5.15;;;;;;;17.44;97.87;95963.75;5092484;28;20012;-63
2022/06/07 06:32:36;;;;;;;5.10;4.70;;;;;;;17.83;95.90;95961.13;5092423;28;20138;-62
2022/06/07 06:35:01;;;;;;;8.38;4.45;;;;;;;18.22;92.77;95957.38;5092458;28;20021;-62
2022/06/07 06:37:27;;;;;;;4.80;3.53;;;;;;;18.32;92.05;95949.97;5092478;28;20535;-62
2022/06/07 06:39:53;;;;;;;3.20;2.92;;;;;;;18.60;90.53;95956.47;5096366;28;20108;-62
2022/06/07 06:42:18;;;;;;;4.32;2.33;;;;;;;18.81;88.79;95953.03;5093976;28;20074;-62
2022/06/07 06:44:44;;;;;;;4.30;3.20;;;;;;;18.68;88.66;95952.84;5091977;28;20124;-62
2022/06/07 06:47:09;;;;;;;10.23;3.70;;;;;;;18.97;88.26;95951.97;5091869;28;20032;-63
2022/06/07 06:49:35;;;;;;;2.75;2.63;;;;;;;19.56;86.19;95951.94;5095619;28;20031;-62
2022/06/07 06:52:00;;;;;;;4.57;2.20;;;;;;;20.05;80.09;95955.63;5092254;28;20024;-62
2022/06/07 06:54:26;;;;;;;2.15;1.98;;;;;;;20.39;79.60;95953.16;5103035;28;20027;-62
2022/06/07 06:56:52;;;;;;;2.03;1.83;;;;;;;20.96;77.60;95953.03;5110883;28;20452;-62
2022/06/07 06:59:18;;;;;;;2.35;1.95;;;;;;;21.26;75.61;95950.00;5105902;28;20037;-61
2022/06/07 07:01:44;;;;;;;2.22;2.00;;;;;;;21.68;75.28;95948.03;5108580;28;20024;-61
2022/06/07 07:04:16;;;;;;;2.00;1.80;;;;;;;22.17;73.30;95958.50;5096985;28;20119;-62
2022/06/07 07:06:42;;;;;;;1.98;1.88;;;;;;;22.22;72.96;95956.03;5095000;28;20489;-60
2022/06/07 07:09:08;;;;;;;6.00;2.15;;;;;;;22.28;71.29;95957.03;5090910;28;20020;-61
2022/06/07 07:11:40;;;;;;;2.63;2.42;;;;;;;21.93;70.22;95957.31;5091006;28;20039;-61
2022/06/07 07:14:06;;;;;;;2.25;2.15;;;;;;;21.06;73.29;95956.13;5080534;28;20034;-61
2022/06/07 07:16:36;;;;;;;3.15;2.40;;;;;;;20.44;74.79;95959.59;5107229;28;20110;-61
2022/06/07 07:19:04;;;;;;;3.10;2.80;;;;;;;19.94;76.24;95954.34;5102852;28;20084;-60
2022/06/07 07:21:35;;;;;;;2.75;2.45;;;;;;;19.83;75.96;95952.19;5102545;28;20062;-60
2022/06/07 07:24:08;;;;;;;2.70;2.50;;;;;;;19.10;79.22;95959.31;5105900;28;20027;-61
2022/06/07 07:26:35;;;;;;;2.90;2.53;;;;;;;19.64;78.83;95951.81;5107938;28;20062;-61
2022/06/07 07:29:02;;;;;;;2.63;2.47;;;;;;;20.55;75.19;95954.69;5104405;28;20081;-61
2022/06/07 07:31:31;;;;;;;4.30;2.53;;;;;;;21.60;71.75;95946.34;5105941;28;20035;-61
2022/06/07 07:33:58;;;;;;;2.78;2.55;;;;;;;22.30;68.97;95945.06;5106391;28;20031;-60
2022/06/07 07:36:23;;;;;;;2.03;1.83;;;;;;;22.95;65.96;95945.28;5107002;28;20038;-61
2022/06/07 07:38:49;;;;;;;3.05;2.20;;;;;;;22.89;65.68;95945.13;5104000;28;20398;-60
2022/06/07 07:41:21;;;;;;;2.10;2.00;;;;;;;22.59;64.63;95948.31;5107589;28;20020;-61
2022/06/07 07:43:47;;;;;;;2.95;1.90;;;;;;;23.33;63.61;95947.19;5100929;28;20016;-60
2022/06/07 07:46:13;;;;;;;2.25;2.08;;;;;;;23.67;61.00;95947.75;5089207;28;20032;-60
2022/06/07 07:48:39;;;;;;;2.60;2.05;;;;;;;23.68;59.53;95940.53;5105540;28;20387;-60
2022/06/07 07:51:06;;;;;;;2.28;2.17;;;;;;;23.86;60.72;95937.06;5105067;28;20032;-61
2022/06/07 07:53:33;;;;;;;2.42;1.80;;;;;;;24.17;58.96;95943.41;5107405;28;20023;-61
2022/06/07 07:55:58;;;;;;;1.80;1.70;;;;;;;24.23;57.92;95942.53;5094545;28;20055;-61
2022/06/07 07:58:23;;;;;;;3.08;1.77;;;;;;;23.89;57.29;95937.44;5107640;28;20031;-60
2022/06/07 08:00:50;;;;;;;2.45;1.70;;;;;;;24.28;57.46;95937.31;5106093;28;20019;-60
2022/06/07 08:03:18;;;;;;;2.13;1.90;;;;;;;25.14;53.85;95941.06;5105525;28;20052;-60
2022/06/07 08:05:44;;;;;;;1.80;1.67;;;;;;;24.60;55.85;95926.38;5106708;28;20597;-60
2022/06/07 08:08:10;;;;;;;2.20;1.85;;;;;;;24.60;54.54;95934.44;5100419;28;20036;-60
2022/06/07 08:10:37;;;;;;;2.00;1.90;;;;;;;25.16;54.01;95929.03;5101101;28;20036;-61
2022/06/07 08:13:03;;;;;;;2.00;1.85;;;;;;;25.49;53.16;95934.16;5094208;28;20035;-60
2022/06/07 08:15:31;;;;;;;3.65;2.00;;;;;;;25.52;53.34;95929.16;5092735;28;20023;-61
2022/06/07 08:17:57;;;;;;;1.50;1.50;;;;;;;25.55;50.67;95930.56;5101099;28;20020;-61
2022/06/07 08:20:24;;;;;;;3.58;1.90;;;;;;;25.48;49.76;95927.13;5104531;28;20030;-61
2022/06/07 08:22:50;;;;;;;1.73;1.63;;;;;;;25.30;52.48;95932.34;5107799;28;20023;-61
2022/06/07 08:25:16;;;;;;;1.80;1.70;;;;;;;25.24;52.26;95933.25;5092194;28;20588;-61
2022/06/07 08:27:42;;;;;;;3.97;1.67;;;;;;;25.23;50.44;95925.41;5105719;28;20020;-61
2022/06/07 08:30:09;;;;;;;2.05;1.60;;;;;;;25.31;50.47;95925.06;5107365;28;20486;-61
2022/06/07 08:32:35;;;;;;;2.00;1.80;;;;;;;25.09;50.07;95917.53;5106606;28;20106;-61
2022/06/07 08:37:44;;;;;;;1.97;1.73;;;;;;;25.74;49.09;95912.41;5105789;28;20026;-61
2022/06/07 08:40:27;;;;;;;2.20;1.63;;;;;;;25.89;48.47;95914.66;5106091;28;20008;-61
2022/06/07 08:42:56;;;;;;;2.83;1.40;;;;;;;26.15;48.34;95905.28;5102893;28;20047;-61
2022/06/07 08:45:35;;;;;;;1.70;1.55;;;;;;;25.14;48.52;95914.97;5099484;28;20015;-61
2022/06/07 08:48:05;;;;;;;1.95;1.65;;;;;;;24.63;50.27;95913.53;5106645;28;20494;-61
2022/06/07 08:50:44;;;;;;;1.50;1.40;;;;;;;25.17;48.32;95908.28;5100038;28;20055;-61
2022/06/07 08:53:18;;;;;;;1.27;1.27;;;;;;;25.44;48.82;95907.91;5104530;28;20016;-61
2022/06/07 08:55:48;;;;;;;2.03;1.60;;;;;;;24.74;48.42;95910.88;5098866;28;20407;-59
2022/06/07 08:58:24;;;;;;;3.80;1.52;;;;;;;24.52;51.36;95912.41;5101230;28;20756;-60
2022/06/07 09:00:53;;;;;;;1.67;1.58;;;;;;;23.39;52.98;95911.38;5095868;28;20031;-61
2022/06/07 09:03:30;;;;;;;1.50;1.40;;;;;;;24.26;52.07;95911.66;5095906;28;20098;-61
2022/06/07 09:06:01;;;;;;;2.40;1.58;;;;;;;24.35;53.25;95913.03;5088378;28;20562;-60
2022/06/07 09:08:39;;;;;;;2.03;1.60;;;;;;;25.15;49.42;95894.22;5089179;28;20498;-61
2022/06/07 09:13:51;;;;;;;2.75;1.70;;;;;;;26.43;44.41;95897.53;5094242;28;20732;-60
2022/06/07 09:16:17;;;;;;;1.50;1.40;;;;;;;25.93;45.94;95899.63;5105464;28;20027;-60
2022/06/07 09:18:45;;;;;;;1.35;1.25;;;;;;;26.19;45.76;95902.94;5096914;28;20035;-61
2022/06/07 09:21:24;;;;;;;2.10;1.67;;;;;;;26.79;43.40;95900.13;5089060;28;20111;-60
2022/06/07 09:23:51;;;;;;;1.70;1.60;;;;;;;25.96;43.88;95901.06;5088947;28;20103;-60
2022/06/07 09:26:24;;;;;;;1.55;1.45;;;;;;;25.98;44.56;95891.69;5088415;28;20040;-61
2022/06/07 09:29:05;;;;;;;2.28;1.40;;;;;;;26.50;44.50;95892.81;5088996;28;20099;-61
2022/06/07 09:31:30;;;;;;;2.15;1.40;;;;;;;26.96;42.54;95902.91;5091162;28;20486;-60
2022/06/07 09:34:02;;;;;;;1.20;1.20;;;;;;;26.78;42.29;95893.09;5070739;28;20052;-60
2022/06/07 09:36:31;;;;;;;2.60;1.05;;;;;;;26.80;41.92;95889.06;5088587;28;20056;-61
2022/06/07 09:39:00;;;;;;;1.40;1.30;;;;;;;27.00;40.55;95885.16;5089051;28;20441;-60
2022/06/07 09:41:36;;;;;;;1.40;1.00;;;;;;;27.62;40.14;95882.69;5088803;28;20360;-61
2022/06/07 09:44:25;;;;;;;1.30;1.20;;;;;;;27.74;36.78;95883.44;5070951;28;20399;-61
2022/06/07 09:47:12;;;;;;;1.20;1.20;;;;;;;27.35;40.40;95881.44;5087568;28;20059;-61
2022/06/07 09:49:43;;;;;;;1.88;1.20;;;;;;;27.17;40.42;95877.91;5095303;28;20073;-61
2022/06/07 09:52:23;;;;;;;1.27;1.27;;;;;;;27.56;39.11;95876.41;5088931;28;20019;-61
2022/06/07 09:54:53;;;;;;;2.30;1.15;;;;;;;27.08;40.38;95878.53;5088536;28;20028;-61
2022/06/07 09:57:38;;;;;;;1.33;1.23;;;;;;;27.95;38.43;95878.34;5088238;28;20024;-60
2022/06/07 10:00:34;;;;;;;1.00;0.90;;;;;;;27.81;38.50;95881.38;5089237;28;20024;-61
2022/06/07 10:03:18;;;;;;;1.13;1.02;;;;;;;27.57;37.51;95870.75;5091302;28;20107;-60
2022/06/07 10:06:00;;;;;;;1.80;1.30;;;;;;;27.60;39.96;95861.31;5093253;28;20032;-61
2022/06/07 10:08:45;;;;;;;1.27;1.17;;;;;;;27.83;38.16;95864.91;5102168;28;20035;-61
2022/06/07 10:11:35;;;;;;;1.83;1.40;;;;;;;27.25;40.45;95865.03;5092169;28;20012;-61
2022/06/07 10:14:23;;;;;;;1.33;1.20;;;;;;;27.09;39.30;95859.41;5099114;28;20432;-61
2022/06/07 10:16:57;;;;;;;1.30;1.20;;;;;;;28.15;38.99;95856.16;5112436;28;20027;-61
2022/06/07 10:19:39;;;;;;;1.05;1.00;;;;;;;28.18;37.28;95858.38;5112560;28;20026;-60
2022/06/07 10:22:39;;;;;;;1.02;0.93;;;;;;;28.75;37.43;95853.66;5109742;28;20080;-61
2022/06/07 10:25:05;;;;;;;1.02;0.90;;;;;;;28.59;37.29;95849.97;5101156;28;20092;-61
2022/06/07 10:27:39;;;;;;;1.20;1.10;;;;;;;28.24;38.26;95845.75;5093371;28;20499;-61
2022/06/07 10:30:27;;;;;;;1.02;0.85;;;;;;;28.38;35.71;95847.00;5092010;28;20081;-61
2022/06/07 10:32:58;;;;;;;3.17;1.05;;;;;;;28.56;35.49;95840.44;5092004;28;20016;-60
2022/06/07 10:35:43;;;;;;;2.20;1.10;;;;;;;28.84;36.38;95841.31;5092138;28;20039;-61
2022/06/07 10:38:17;;;;;;;1.20;1.10;;;;;;;29.22;33.94;95840.59;5094313;28;20525;-61
2022/06/07 10:41:13;;;;;;;0.90;0.90;;;;;;;28.93;34.46;95830.03;5092283;28;20032;-60
2022/06/07 10:44:01;;;;;;;1.02;0.70;;;;;;;28.20;35.15;95837.31;5092461;28;20035;-61
2022/06/07 10:46:29;;;;;;;0.93;0.93;;;;;;;28.56;35.40;95835.03;5100628;28;20422;-61
2022/06/07 10:49:51;;;;;;;0.98;0.98;;;;;;;28.87;33.30;95829.16;5092003;28;20020;-61
2022/06/07 10:52:32;;;;;;;1.00;1.00;;;;;;;29.57;32.47;95825.72;5023250;28;20455;-62
2022/06/07 10:55:00;;;;;;;1.00;0.75;;;;;;;29.29;31.40;95819.50;5029470;28;20044;-62
2022/06/07 10:57:39;;;;;;;1.00;1.00;;;;;;;29.47;31.30;95820.22;5072087;28;20047;-62
2022/06/07 11:00:30;;;;;;;4.57;1.00;;;;;;;29.40;32.58;95818.50;5100217;28;20386;-61
2022/06/07 11:03:12;;;;;;;1.10;1.10;;;;;;;28.89;34.79;95810.75;5091765;28;20024;-62
2022/06/07 11:11:18;;;;;;;0.77;0.77;;;;;;;29.81;30.76;95814.50;5093626;27;20086;-62
2022/06/07 11:14:09;;;;;;;2.95;1.02;;;;;;;28.90;31.60;95814.28;5096048;27;20047;-62
2022/06/07 11:16:52;;;;;;;0.90;0.90;;;;;;;29.64;32.29;95815.47;5101909;27;20392;-63
2022/06/07 11:19:17;;;;;;;0.93;0.90;;;;;;;29.40;33.06;95809.56;5097203;27;20028;-62
2022/06/07 11:21:47;;;;;;;0.82;0.82;;;;;;;29.28;31.87;95807.03;5105947;27;20042;-62
2022/06/07 11:24:31;;;;;;;1.27;1.05;;;;;;;29.68;33.13;95804.91;5100677;27;20024;-61
2022/06/07 11:27:13;;;;;;;0.90;0.90;;;;;;;30.01;29.63;95797.50;5091994;28;20024;-61
2022/06/07 11:29:39;;;;;;;1.75;0.80;;;;;;;29.91;30.10;95795.53;5099871;27;20053;-62
2022/06/07 11:32:40;;;;;;;1.33;0.98;;;;;;;28.81;31.34;95792.25;5097833;27;20016;-62
2022/06/07 11:35:47;;;;;;;3.05;1.10;;;;;;;29.00;31.65;95785.41;5099824;27;20053;-63
2022/06/07 11:38:21;;;;;;;0.80;0.80;;;;;;;29.20;31.54;95788.53;5093061;28;20073;-61
2022/06/07 11:40:47;;;;;;;1.48;0.93;;;;;;;28.83;32.91;95785.50;5093045;28;20059;-61
2022/06/07 11:43:50;;;;;;;2.17;1.10;;;;;;;28.88;31.92;95788.28;5103091;28;20039;-61
2022/06/07 11:46:33;;;;;;;0.98;0.98;;;;;;;27.58;33.01;95788.56;5089116;28;20394;-62
2022/06/07 11:49:17;;;;;;;0.73;0.73;;;;;;;28.44;30.99;95774.81;5099642;28;20055;-61
2022/06/07 11:51:53;;;;;;;0.82;0.82;;;;;;;28.64;31.18;95782.31;5102153;28;20040;-61
2022/06/07 11:54:26;;;;;;;1.13;0.90;;;;;;;27.65;32.37;95779.47;5090185;28;20061;-61
2022/06/07 11:56:56;;;;;;;0.73;0.73;;;;;;;26.91;33.50;95768.56;5092103;28;20048;-61
2022/06/07 11:59:21;;;;;;;0.77;0.77;;;;;;;27.67;32.95;95780.84;5109697;28;20011;-61
2022/06/07 12:02:07;;;;;;;2.10;0.70;;;;;;;28.83;30.33;95763.84;5094335;28;20029;-61